sensor_id;sensor_type;location;lat;lon;timestamp;P1;durP1;ratioP1;P2;durP2;ratioP2
67191;SDS011;54120;53.504;49.426;2023-05-02T00:00:55;10.80;;;5.03;;
67191;SDS011;54120;53.504;49.426;2023-05-02T00:03:21;11.13;;;5.05;;
67191;SDS011;54120;53.504;49.426;2023-05-02T00:05:48;7.05;;;4.80;;
67191;SDS011;54120;53.504;49.426;2023-05-02T00:08:14;8.35;;;4.68;;
67191;SDS011;54120;53.504;49.426;2023-05-02T00:10:41;14.32;;;4.90;;
67191;SDS011;54120;53.504;49.426;2023-05-02T00:13:08;12.07;;;4.97;;
67191;SDS011;54120;53.504;49.426;2023-05-02T00:15:34;11.77;;;5.03;;
67191;SDS011;54120;53.504;49.426;2023-05-02T00:18:01;8.57;;;5.13;;
67191;SDS011;54120;53.504;49.426;2023-05-02T00:20:27;12.05;;;5.05;;
67191;SDS011;54120;53.504;49.426;2023-05-02T00:22:54;10.20;;;5.15;;
67191;SDS011;54120;53.504;49.426;2023-05-02T00:25:22;8.25;;;4.88;;
67191;SDS011;54120;53.504;49.426;2023-05-02T00:27:49;7.88;;;4.97;;
67191;SDS011;54120;53.504;49.426;2023-05-02T00:30:16;10.77;;;5.10;;
67191;SDS011;54120;53.504;49.426;2023-05-02T00:32:43;13.80;;;5.40;;
67191;SDS011;54120;53.504;49.426;2023-05-02T00:35:09;8.70;;;5.47;;
67191;SDS011;54120;53.504;49.426;2023-05-02T00:37:36;8.80;;;5.25;;
67191;SDS011;54120;53.504;49.426;2023-05-02T00:40:02;11.23;;;5.55;;
67191;SDS011;54120;53.504;49.426;2023-05-02T00:42:31;12.15;;;5.78;;
67191;SDS011;54120;53.504;49.426;2023-05-02T00:44:59;9.80;;;5.90;;
67191;SDS011;54120;53.504;49.426;2023-05-02T00:50:16;12.80;;;7.80;;
67191;SDS011;54120;53.504;49.426;2023-05-02T00:52:43;12.63;;;9.07;;
67191;SDS011;54120;53.504;49.426;2023-05-02T00:55:10;19.50;;;9.27;;
67191;SDS011;54120;53.504;49.426;2023-05-02T00:57:36;16.42;;;9.77;;
67191;SDS011;54120;53.504;49.426;2023-05-02T01:00:03;14.35;;;9.45;;
67191;SDS011;54120;53.504;49.426;2023-05-02T01:03:07;12.77;;;8.25;;
67191;SDS011;54120;53.504;49.426;2023-05-02T01:05:37;11.60;;;7.35;;
67191;SDS011;54120;53.504;49.426;2023-05-02T01:31:41;8.10;;;4.88;;
67191;SDS011;54120;53.504;49.426;2023-05-02T01:34:09;5.95;;;4.60;;
67191;SDS011;54120;53.504;49.426;2023-05-02T01:39:37;4.72;;;4.22;;
67191;SDS011;54120;53.504;49.426;2023-05-02T01:42:05;7.47;;;4.10;;
67191;SDS011;54120;53.504;49.426;2023-05-02T01:44:32;8.55;;;3.60;;
67191;SDS011;54120;53.504;49.426;2023-05-02T01:47:01;7.57;;;4.00;;
67191;SDS011;54120;53.504;49.426;2023-05-02T01:49:30;4.15;;;3.58;;
67191;SDS011;54120;53.504;49.426;2023-05-02T01:52:01;5.82;;;4.00;;
67191;SDS011;54120;53.504;49.426;2023-05-02T01:54:29;7.80;;;4.90;;
67191;SDS011;54120;53.504;49.426;2023-05-02T01:56:58;9.98;;;5.97;;
67191;SDS011;54120;53.504;49.426;2023-05-02T01:59:28;6.85;;;4.63;;
67191;SDS011;54120;53.504;49.426;2023-05-02T02:01:57;6.95;;;5.57;;
67191;SDS011;54120;53.504;49.426;2023-05-02T02:04:26;10.15;;;5.35;;
67191;SDS011;54120;53.504;49.426;2023-05-02T02:06:57;7.07;;;5.22;;
67191;SDS011;54120;53.504;49.426;2023-05-02T02:09:28;7.53;;;6.20;;
67191;SDS011;54120;53.504;49.426;2023-05-02T02:12:10;7.63;;;6.18;;
67191;SDS011;54120;53.504;49.426;2023-05-02T02:14:42;12.48;;;9.25;;
67191;SDS011;54120;53.504;49.426;2023-05-02T02:17:21;15.27;;;9.73;;
67191;SDS011;54120;53.504;49.426;2023-05-02T02:19:52;10.15;;;7.90;;
67191;SDS011;54120;53.504;49.426;2023-05-02T02:22:20;8.90;;;6.93;;
67191;SDS011;54120;53.504;49.426;2023-05-02T02:24:50;11.43;;;6.30;;
67191;SDS011;54120;53.504;49.426;2023-05-02T02:27:18;7.30;;;6.15;;
67191;SDS011;54120;53.504;49.426;2023-05-02T02:29:44;8.30;;;6.28;;
67191;SDS011;54120;53.504;49.426;2023-05-02T02:32:11;12.80;;;6.20;;
67191;SDS011;54120;53.504;49.426;2023-05-02T02:34:37;8.60;;;6.20;;
67191;SDS011;54120;53.504;49.426;2023-05-02T02:37:04;6.65;;;5.53;;
67191;SDS011;54120;53.504;49.426;2023-05-02T02:39:56;10.68;;;6.22;;
67191;SDS011;54120;53.504;49.426;2023-05-02T02:42:52;6.63;;;5.93;;
67191;SDS011;54120;53.504;49.426;2023-05-02T02:50:45;12.60;;;6.55;;
67191;SDS011;54120;53.504;49.426;2023-05-02T02:53:33;10.73;;;6.20;;
67191;SDS011;54120;53.504;49.426;2023-05-02T02:56:12;8.02;;;6.80;;
67191;SDS011;54120;53.504;49.426;2023-05-02T02:58:56;9.98;;;7.20;;
67191;SDS011;54120;53.504;49.426;2023-05-02T03:01:30;8.07;;;6.18;;
67191;SDS011;54120;53.504;49.426;2023-05-02T03:03:58;7.97;;;6.65;;
67191;SDS011;54120;53.504;49.426;2023-05-02T03:06:30;8.77;;;6.95;;
67191;SDS011;54120;53.504;49.426;2023-05-02T03:08:56;8.05;;;6.50;;
67191;SDS011;54120;53.504;49.426;2023-05-02T03:11:23;8.63;;;6.53;;
67191;SDS011;54120;53.504;49.426;2023-05-02T03:13:49;8.05;;;6.30;;
67191;SDS011;54120;53.504;49.426;2023-05-02T03:18:43;7.53;;;6.40;;
67191;SDS011;54120;53.504;49.426;2023-05-02T03:21:09;6.95;;;6.25;;
67191;SDS011;54120;53.504;49.426;2023-05-02T03:23:35;7.85;;;6.40;;
67191;SDS011;54120;53.504;49.426;2023-05-02T03:26:01;9.75;;;6.07;;
67191;SDS011;54120;53.504;49.426;2023-05-02T03:28:27;11.68;;;6.60;;
67191;SDS011;54120;53.504;49.426;2023-05-02T03:30:53;8.35;;;6.25;;
67191;SDS011;54120;53.504;49.426;2023-05-02T03:33:19;7.43;;;6.13;;
67191;SDS011;54120;53.504;49.426;2023-05-02T03:35:46;6.25;;;5.43;;
67191;SDS011;54120;53.504;49.426;2023-05-02T03:38:12;6.68;;;5.60;;
67191;SDS011;54120;53.504;49.426;2023-05-02T03:40:38;6.70;;;5.38;;
67191;SDS011;54120;53.504;49.426;2023-05-02T03:43:04;5.78;;;5.10;;
67191;SDS011;54120;53.504;49.426;2023-05-02T03:45:30;7.85;;;5.20;;
67191;SDS011;54120;53.504;49.426;2023-05-02T03:47:58;7.88;;;4.85;;
67191;SDS011;54120;53.504;49.426;2023-05-02T03:50:24;5.38;;;4.60;;
67191;SDS011;54120;53.504;49.426;2023-05-02T03:52:50;4.82;;;4.28;;
67191;SDS011;54120;53.504;49.426;2023-05-02T03:55:17;5.57;;;5.07;;
67191;SDS011;54120;53.504;49.426;2023-05-02T03:57:44;5.40;;;4.90;;
67191;SDS011;54120;53.504;49.426;2023-05-02T04:00:10;6.25;;;4.45;;
67191;SDS011;54120;53.504;49.426;2023-05-02T04:02:36;5.90;;;4.30;;
67191;SDS011;54120;53.504;49.426;2023-05-02T04:05:02;6.18;;;4.30;;
67191;SDS011;54120;53.504;49.426;2023-05-02T04:07:29;4.95;;;4.28;;
67191;SDS011;54120;53.504;49.426;2023-05-02T04:09:55;6.70;;;4.65;;
67191;SDS011;54120;53.504;49.426;2023-05-02T04:12:21;5.47;;;4.38;;
67191;SDS011;54120;53.504;49.426;2023-05-02T04:14:47;4.93;;;4.40;;
67191;SDS011;54120;53.504;49.426;2023-05-02T04:17:14;4.55;;;4.10;;
67191;SDS011;54120;53.504;49.426;2023-05-02T04:19:41;4.90;;;4.38;;
67191;SDS011;54120;53.504;49.426;2023-05-02T04:22:07;6.78;;;4.40;;
67191;SDS011;54120;53.504;49.426;2023-05-02T04:24:33;4.68;;;3.85;;
67191;SDS011;54120;53.504;49.426;2023-05-02T04:26:59;4.40;;;4.00;;
67191;SDS011;54120;53.504;49.426;2023-05-02T04:29:26;5.82;;;4.22;;
67191;SDS011;54120;53.504;49.426;2023-05-02T04:31:52;5.30;;;4.28;;
67191;SDS011;54120;53.504;49.426;2023-05-02T04:34:18;5.88;;;4.63;;
67191;SDS011;54120;53.504;49.426;2023-05-02T04:36:45;7.13;;;5.95;;
67191;SDS011;54120;53.504;49.426;2023-05-02T04:39:12;6.32;;;5.45;;
67191;SDS011;54120;53.504;49.426;2023-05-02T04:41:39;5.97;;;5.07;;
67191;SDS011;54120;53.504;49.426;2023-05-02T04:44:06;5.85;;;5.25;;
67191;SDS011;54120;53.504;49.426;2023-05-02T04:46:32;7.30;;;5.63;;
67191;SDS011;54120;53.504;49.426;2023-05-02T04:48:58;5.95;;;5.32;;
67191;SDS011;54120;53.504;49.426;2023-05-02T04:51:24;8.98;;;6.78;;
67191;SDS011;54120;53.504;49.426;2023-05-02T04:53:52;8.80;;;6.28;;
67191;SDS011;54120;53.504;49.426;2023-05-02T04:56:18;7.53;;;6.70;;
67191;SDS011;54120;53.504;49.426;2023-05-02T04:58:44;7.53;;;6.00;;
67191;SDS011;54120;53.504;49.426;2023-05-02T05:01:10;8.32;;;5.50;;
67191;SDS011;54120;53.504;49.426;2023-05-02T05:03:36;13.38;;;5.32;;
67191;SDS011;54120;53.504;49.426;2023-05-02T05:06:03;9.70;;;7.15;;
67191;SDS011;54120;53.504;49.426;2023-05-02T05:08:29;9.55;;;6.60;;
67191;SDS011;54120;53.504;49.426;2023-05-02T05:10:57;6.90;;;6.10;;
67191;SDS011;54120;53.504;49.426;2023-05-02T05:13:23;6.18;;;5.30;;
67191;SDS011;54120;53.504;49.426;2023-05-02T05:15:49;10.32;;;7.97;;
67191;SDS011;54120;53.504;49.426;2023-05-02T05:18:15;10.00;;;6.95;;
67191;SDS011;54120;53.504;49.426;2023-05-02T05:20:41;10.30;;;7.50;;
67191;SDS011;54120;53.504;49.426;2023-05-02T05:23:09;6.80;;;5.40;;
67191;SDS011;54120;53.504;49.426;2023-05-02T05:25:37;9.55;;;6.05;;
67191;SDS011;54120;53.504;49.426;2023-05-02T05:28:06;6.82;;;6.13;;
67191;SDS011;54120;53.504;49.426;2023-05-02T05:30:32;5.72;;;5.13;;
67191;SDS011;54120;53.504;49.426;2023-05-02T05:32:58;7.80;;;5.43;;
67191;SDS011;54120;53.504;49.426;2023-05-02T05:35:25;8.88;;;5.35;;
67191;SDS011;54120;53.504;49.426;2023-05-02T05:37:51;6.63;;;4.70;;
67191;SDS011;54120;53.504;49.426;2023-05-02T05:40:17;5.50;;;4.65;;
67191;SDS011;54120;53.504;49.426;2023-05-02T05:42:44;5.45;;;4.78;;
67191;SDS011;54120;53.504;49.426;2023-05-02T05:45:10;5.57;;;4.43;;
67191;SDS011;54120;53.504;49.426;2023-05-02T05:47:37;6.38;;;4.38;;
67191;SDS011;54120;53.504;49.426;2023-05-02T05:50:03;4.43;;;4.03;;
67191;SDS011;54120;53.504;49.426;2023-05-02T05:52:30;4.50;;;4.10;;
67191;SDS011;54120;53.504;49.426;2023-05-02T05:54:57;4.70;;;4.22;;
67191;SDS011;54120;53.504;49.426;2023-05-02T05:57:23;5.13;;;4.70;;
67191;SDS011;54120;53.504;49.426;2023-05-02T05:59:49;7.07;;;5.10;;
67191;SDS011;54120;53.504;49.426;2023-05-02T06:02:15;6.93;;;5.50;;
67191;SDS011;54120;53.504;49.426;2023-05-02T06:04:42;6.25;;;5.57;;
67191;SDS011;54120;53.504;49.426;2023-05-02T06:07:08;5.78;;;5.28;;
67191;SDS011;54120;53.504;49.426;2023-05-02T06:09:35;8.25;;;5.10;;
67191;SDS011;54120;53.504;49.426;2023-05-02T06:12:01;6.38;;;5.75;;
67191;SDS011;54120;53.504;49.426;2023-05-02T06:14:27;7.32;;;5.55;;
67191;SDS011;54120;53.504;49.426;2023-05-02T06:16:53;10.23;;;6.30;;
67191;SDS011;54120;53.504;49.426;2023-05-02T06:19:19;6.60;;;6.00;;
67191;SDS011;54120;53.504;49.426;2023-05-02T06:21:45;7.78;;;6.30;;
67191;SDS011;54120;53.504;49.426;2023-05-02T06:24:11;7.57;;;6.50;;
67191;SDS011;54120;53.504;49.426;2023-05-02T06:26:38;12.15;;;6.55;;
67191;SDS011;54120;53.504;49.426;2023-05-02T06:29:04;8.95;;;6.70;;
67191;SDS011;54120;53.504;49.426;2023-05-02T06:31:31;8.23;;;6.60;;
67191;SDS011;54120;53.504;49.426;2023-05-02T06:33:57;9.10;;;7.15;;
67191;SDS011;54120;53.504;49.426;2023-05-02T06:36:23;7.70;;;6.90;;
67191;SDS011;54120;53.504;49.426;2023-05-02T06:38:49;10.60;;;6.68;;
67191;SDS011;54120;53.504;49.426;2023-05-02T06:41:15;9.40;;;6.65;;
67191;SDS011;54120;53.504;49.426;2023-05-02T06:43:41;7.60;;;6.22;;
67191;SDS011;54120;53.504;49.426;2023-05-02T06:46:07;10.23;;;6.72;;
67191;SDS011;54120;53.504;49.426;2023-05-02T06:48:36;8.57;;;6.22;;
67191;SDS011;54120;53.504;49.426;2023-05-02T06:51:02;8.35;;;6.53;;
67191;SDS011;54120;53.504;49.426;2023-05-02T06:53:30;8.05;;;7.18;;
67191;SDS011;54120;53.504;49.426;2023-05-02T06:55:56;8.30;;;6.43;;
67191;SDS011;54120;53.504;49.426;2023-05-02T06:58:22;12.10;;;6.47;;
67191;SDS011;54120;53.504;49.426;2023-05-02T07:00:48;13.45;;;7.57;;
67191;SDS011;54120;53.504;49.426;2023-05-02T07:03:15;12.57;;;7.57;;
67191;SDS011;54120;53.504;49.426;2023-05-02T07:05:41;10.82;;;7.85;;
67191;SDS011;54120;53.504;49.426;2023-05-02T07:08:07;12.32;;;7.30;;
67191;SDS011;54120;53.504;49.426;2023-05-02T07:10:34;9.75;;;7.57;;
67191;SDS011;54120;53.504;49.426;2023-05-02T07:13:01;10.88;;;7.53;;
67191;SDS011;54120;53.504;49.426;2023-05-02T07:15:27;8.38;;;6.25;;
67191;SDS011;54120;53.504;49.426;2023-05-02T07:17:54;6.03;;;5.45;;
67191;SDS011;54120;53.504;49.426;2023-05-02T07:20:20;6.50;;;5.40;;
67191;SDS011;54120;53.504;49.426;2023-05-02T07:22:46;5.30;;;4.80;;
67191;SDS011;54120;53.504;49.426;2023-05-02T07:25:12;7.85;;;4.82;;
67191;SDS011;54120;53.504;49.426;2023-05-02T07:27:38;6.25;;;4.53;;
67191;SDS011;54120;53.504;49.426;2023-05-02T07:30:04;5.93;;;4.82;;
67191;SDS011;54120;53.504;49.426;2023-05-02T07:32:31;5.53;;;4.72;;
67191;SDS011;54120;53.504;49.426;2023-05-02T07:34:57;9.50;;;5.13;;
67191;SDS011;54120;53.504;49.426;2023-05-02T07:37:23;10.30;;;5.70;;
67191;SDS011;54120;53.504;49.426;2023-05-02T07:39:49;9.35;;;6.38;;
67191;SDS011;54120;53.504;49.426;2023-05-02T07:42:15;8.23;;;5.60;;
67191;SDS011;54120;53.504;49.426;2023-05-02T07:44:41;6.68;;;5.28;;
67191;SDS011;54120;53.504;49.426;2023-05-02T07:47:07;8.10;;;5.13;;
67191;SDS011;54120;53.504;49.426;2023-05-02T07:49:34;11.52;;;4.78;;
67191;SDS011;54120;53.504;49.426;2023-05-02T07:52:01;4.18;;;3.60;;
67191;SDS011;54120;53.504;49.426;2023-05-02T07:54:28;5.30;;;3.65;;
67191;SDS011;54120;53.504;49.426;2023-05-02T07:56:54;6.15;;;4.05;;
67191;SDS011;54120;53.504;49.426;2023-05-02T07:59:23;6.60;;;3.63;;
67191;SDS011;54120;53.504;49.426;2023-05-02T08:01:49;5.63;;;3.53;;
67191;SDS011;54120;53.504;49.426;2023-05-02T08:04:15;4.30;;;3.90;;
67191;SDS011;54120;53.504;49.426;2023-05-02T08:06:43;5.45;;;4.00;;
67191;SDS011;54120;53.504;49.426;2023-05-02T08:09:09;4.78;;;3.78;;
67191;SDS011;54120;53.504;49.426;2023-05-02T08:11:35;7.45;;;4.45;;
67191;SDS011;54120;53.504;49.426;2023-05-02T08:14:01;5.43;;;4.65;;
67191;SDS011;54120;53.504;49.426;2023-05-02T08:16:28;5.85;;;4.50;;
67191;SDS011;54120;53.504;49.426;2023-05-02T08:18:54;5.30;;;4.05;;
67191;SDS011;54120;53.504;49.426;2023-05-02T08:21:20;8.52;;;4.63;;
67191;SDS011;54120;53.504;49.426;2023-05-02T08:23:46;6.22;;;4.93;;
67191;SDS011;54120;53.504;49.426;2023-05-02T08:26:12;6.18;;;5.00;;
67191;SDS011;54120;53.504;49.426;2023-05-02T08:28:38;8.82;;;4.63;;
67191;SDS011;54120;53.504;49.426;2023-05-02T08:31:04;8.80;;;4.25;;
67191;SDS011;54120;53.504;49.426;2023-05-02T08:33:30;7.32;;;4.47;;
67191;SDS011;54120;53.504;49.426;2023-05-02T08:35:56;6.93;;;4.15;;
67191;SDS011;54120;53.504;49.426;2023-05-02T08:45:01;6.80;;;4.18;;
67191;SDS011;54120;53.504;49.426;2023-05-02T08:47:27;8.32;;;4.07;;
67191;SDS011;54120;53.504;49.426;2023-05-02T08:49:57;6.53;;;3.63;;
67191;SDS011;54120;53.504;49.426;2023-05-02T08:52:24;10.63;;;4.13;;
67191;SDS011;54120;53.504;49.426;2023-05-02T08:54:51;7.47;;;4.38;;
67191;SDS011;54120;53.504;49.426;2023-05-02T08:57:19;6.00;;;4.57;;
67191;SDS011;54120;53.504;49.426;2023-05-02T08:59:45;5.18;;;4.28;;
67191;SDS011;54120;53.504;49.426;2023-05-02T09:05:16;6.45;;;4.30;;
67191;SDS011;54120;53.504;49.426;2023-05-02T09:07:48;6.95;;;4.30;;
67191;SDS011;54120;53.504;49.426;2023-05-02T09:10:15;7.68;;;4.43;;
67191;SDS011;54120;53.504;49.426;2023-05-02T09:12:42;4.53;;;3.95;;
67191;SDS011;54120;53.504;49.426;2023-05-02T09:15:09;5.75;;;3.90;;
67191;SDS011;54120;53.504;49.426;2023-05-02T09:17:42;7.35;;;4.30;;
67191;SDS011;54120;53.504;49.426;2023-05-02T09:20:14;4.45;;;4.05;;
67191;SDS011;54120;53.504;49.426;2023-05-02T09:22:48;9.38;;;4.25;;
67191;SDS011;54120;53.504;49.426;2023-05-02T09:25:15;4.55;;;4.18;;
67191;SDS011;54120;53.504;49.426;2023-05-02T09:28:00;7.80;;;3.80;;
67191;SDS011;54120;53.504;49.426;2023-05-02T09:30:26;4.55;;;4.10;;
67191;SDS011;54120;53.504;49.426;2023-05-02T09:32:52;5.72;;;4.15;;
67191;SDS011;54120;53.504;49.426;2023-05-02T09:35:20;6.63;;;3.75;;
67191;SDS011;54120;53.504;49.426;2023-05-02T09:37:49;4.43;;;4.03;;
67191;SDS011;54120;53.504;49.426;2023-05-02T09:40:21;4.45;;;3.75;;
67191;SDS011;54120;53.504;49.426;2023-05-02T09:42:49;12.65;;;4.25;;
67191;SDS011;54120;53.504;49.426;2023-05-02T09:45:20;7.10;;;3.95;;
67191;SDS011;54120;53.504;49.426;2023-05-02T09:47:50;6.35;;;4.18;;
67191;SDS011;54120;53.504;49.426;2023-05-02T09:50:33;8.10;;;4.30;;
67191;SDS011;54120;53.504;49.426;2023-05-02T09:53:07;4.82;;;4.20;;
67191;SDS011;54120;53.504;49.426;2023-05-02T09:55:35;9.52;;;4.70;;
67191;SDS011;54120;53.504;49.426;2023-05-02T09:58:01;5.53;;;4.30;;
67191;SDS011;54120;53.504;49.426;2023-05-02T10:03:05;4.80;;;4.35;;
67191;SDS011;54120;53.504;49.426;2023-05-02T10:05:35;4.45;;;3.85;;
67191;SDS011;54120;53.504;49.426;2023-05-02T10:08:03;4.88;;;4.38;;
67191;SDS011;54120;53.504;49.426;2023-05-02T10:10:41;4.78;;;4.28;;
67191;SDS011;54120;53.504;49.426;2023-05-02T10:13:12;9.90;;;4.80;;
67191;SDS011;54120;53.504;49.426;2023-05-02T10:15:42;7.05;;;4.68;;
67191;SDS011;54120;53.504;49.426;2023-05-02T10:18:13;9.15;;;4.80;;
67191;SDS011;54120;53.504;49.426;2023-05-02T10:20:55;5.15;;;4.65;;
67191;SDS011;54120;53.504;49.426;2023-05-02T10:23:26;8.27;;;4.70;;
67191;SDS011;54120;53.504;49.426;2023-05-02T10:25:54;5.18;;;4.55;;
67191;SDS011;54120;53.504;49.426;2023-05-02T10:28:22;6.20;;;4.93;;
67191;SDS011;54120;53.504;49.426;2023-05-02T10:30:50;6.60;;;4.32;;
67191;SDS011;54120;53.504;49.426;2023-05-02T10:33:18;6.57;;;4.50;;
67191;SDS011;54120;53.504;49.426;2023-05-02T10:35:45;9.18;;;5.13;;
67191;SDS011;54120;53.504;49.426;2023-05-02T10:38:16;8.55;;;4.88;;
67191;SDS011;54120;53.504;49.426;2023-05-02T10:40:49;5.70;;;5.07;;
67191;SDS011;54120;53.504;49.426;2023-05-02T10:43:24;6.10;;;5.28;;
67191;SDS011;54120;53.504;49.426;2023-05-02T10:45:56;9.23;;;4.97;;
67191;SDS011;54120;53.504;49.426;2023-05-02T10:48:23;7.40;;;4.90;;
67191;SDS011;54120;53.504;49.426;2023-05-02T10:50:51;7.80;;;5.32;;
67191;SDS011;54120;53.504;49.426;2023-05-02T10:53:32;6.65;;;5.30;;
67191;SDS011;54120;53.504;49.426;2023-05-02T10:56:07;5.53;;;4.82;;
67191;SDS011;54120;53.504;49.426;2023-05-02T10:58:34;7.38;;;5.20;;
67191;SDS011;54120;53.504;49.426;2023-05-02T11:04:05;6.63;;;5.47;;
67191;SDS011;54120;53.504;49.426;2023-05-02T11:09:29;6.82;;;5.22;;
67191;SDS011;54120;53.504;49.426;2023-05-02T11:11:57;7.00;;;5.03;;
67191;SDS011;54120;53.504;49.426;2023-05-02T11:24:47;8.33;;;4.60;;
67191;SDS011;54120;53.504;49.426;2023-05-02T11:32:23;4.90;;;4.40;;
67191;SDS011;54120;53.504;49.426;2023-05-02T11:37:55;5.72;;;4.97;;
67191;SDS011;54120;53.504;49.426;2023-05-02T11:40:28;5.70;;;4.63;;
67191;SDS011;54120;53.504;49.426;2023-05-02T11:42:56;5.43;;;4.53;;
67191;SDS011;54120;53.504;49.426;2023-05-02T11:45:33;7.93;;;4.70;;
67191;SDS011;54120;53.504;49.426;2023-05-02T11:48:06;5.65;;;5.15;;
67191;SDS011;54120;53.504;49.426;2023-05-02T11:50:33;8.70;;;4.90;;
67191;SDS011;54120;53.504;49.426;2023-05-02T11:53:08;6.10;;;5.50;;
67191;SDS011;54120;53.504;49.426;2023-05-02T11:55:36;6.10;;;5.15;;
67191;SDS011;54120;53.504;49.426;2023-05-02T11:58:02;7.13;;;5.05;;
67191;SDS011;54120;53.504;49.426;2023-05-02T12:00:28;7.53;;;5.70;;
67191;SDS011;54120;53.504;49.426;2023-05-02T12:02:55;6.25;;;5.50;;
67191;SDS011;54120;53.504;49.426;2023-05-02T12:05:27;6.38;;;5.65;;
67191;SDS011;54120;53.504;49.426;2023-05-02T12:07:54;6.55;;;5.65;;
67191;SDS011;54120;53.504;49.426;2023-05-02T12:10:20;8.63;;;6.18;;
67191;SDS011;54120;53.504;49.426;2023-05-02T12:12:47;8.30;;;5.95;;
67191;SDS011;54120;53.504;49.426;2023-05-02T12:15:14;7.40;;;5.78;;
67191;SDS011;54120;53.504;49.426;2023-05-02T12:17:44;9.00;;;5.57;;
67191;SDS011;54120;53.504;49.426;2023-05-02T12:20:13;9.75;;;6.93;;
67191;SDS011;54120;53.504;49.426;2023-05-02T12:22:41;8.45;;;4.88;;
67191;SDS011;54120;53.504;49.426;2023-05-02T12:25:07;9.07;;;5.43;;
67191;SDS011;54120;53.504;49.426;2023-05-02T12:27:34;6.80;;;5.35;;
67191;SDS011;54120;53.504;49.426;2023-05-02T12:30:00;7.90;;;5.10;;
67191;SDS011;54120;53.504;49.426;2023-05-02T12:32:27;5.63;;;5.05;;
67191;SDS011;54120;53.504;49.426;2023-05-02T12:34:58;6.80;;;4.88;;
67191;SDS011;54120;53.504;49.426;2023-05-02T12:37:26;7.28;;;4.93;;
67191;SDS011;54120;53.504;49.426;2023-05-02T12:39:53;7.07;;;4.68;;
67191;SDS011;54120;53.504;49.426;2023-05-02T12:42:22;5.28;;;4.78;;
67191;SDS011;54120;53.504;49.426;2023-05-02T12:44:49;7.15;;;4.72;;
67191;SDS011;54120;53.504;49.426;2023-05-02T12:47:17;7.03;;;5.25;;
67191;SDS011;54120;53.504;49.426;2023-05-02T12:52:19;6.20;;;5.55;;
67191;SDS011;54120;53.504;49.426;2023-05-02T12:54:46;8.15;;;5.50;;
67191;SDS011;54120;53.504;49.426;2023-05-02T12:57:25;7.88;;;6.13;;
67191;SDS011;54120;53.504;49.426;2023-05-02T12:59:52;10.00;;;5.57;;
67191;SDS011;54120;53.504;49.426;2023-05-02T13:02:22;6.72;;;5.95;;
67191;SDS011;54120;53.504;49.426;2023-05-02T13:04:50;8.15;;;5.78;;
67191;SDS011;54120;53.504;49.426;2023-05-02T13:07:17;6.15;;;5.45;;
67191;SDS011;54120;53.504;49.426;2023-05-02T13:09:44;7.65;;;5.95;;
67191;SDS011;54120;53.504;49.426;2023-05-02T13:12:10;11.95;;;7.13;;
67191;SDS011;54120;53.504;49.426;2023-05-02T13:14:38;8.70;;;6.80;;
67191;SDS011;54120;53.504;49.426;2023-05-02T13:17:04;11.27;;;7.28;;
67191;SDS011;54120;53.504;49.426;2023-05-02T13:19:33;10.07;;;6.05;;
67191;SDS011;54120;53.504;49.426;2023-05-02T13:21:59;7.07;;;6.28;;
67191;SDS011;54120;53.504;49.426;2023-05-02T13:24:26;9.52;;;6.25;;
67191;SDS011;54120;53.504;49.426;2023-05-02T13:26:53;8.43;;;6.28;;
67191;SDS011;54120;53.504;49.426;2023-05-02T13:31:52;7.72;;;6.25;;
67191;SDS011;54120;53.504;49.426;2023-05-02T13:34:18;7.05;;;6.35;;
67191;SDS011;54120;53.504;49.426;2023-05-02T13:36:45;9.25;;;6.68;;
67191;SDS011;54120;53.504;49.426;2023-05-02T13:39:12;11.02;;;6.50;;
67191;SDS011;54120;53.504;49.426;2023-05-02T13:41:39;8.13;;;5.95;;
67191;SDS011;54120;53.504;49.426;2023-05-02T13:44:08;7.50;;;6.53;;
67191;SDS011;54120;53.504;49.426;2023-05-02T13:46:35;7.57;;;6.25;;
67191;SDS011;54120;53.504;49.426;2023-05-02T13:49:04;9.32;;;7.10;;
67191;SDS011;54120;53.504;49.426;2023-05-02T13:51:30;8.07;;;7.28;;
67191;SDS011;54120;53.504;49.426;2023-05-02T13:53:58;8.35;;;7.40;;
67191;SDS011;54120;53.504;49.426;2023-05-02T13:56:25;11.02;;;7.25;;
67191;SDS011;54120;53.504;49.426;2023-05-02T13:58:52;9.65;;;7.65;;
67191;SDS011;54120;53.504;49.426;2023-05-02T14:01:18;11.93;;;7.72;;
67191;SDS011;54120;53.504;49.426;2023-05-02T14:03:44;8.20;;;7.40;;
67191;SDS011;54120;53.504;49.426;2023-05-02T14:06:10;14.75;;;11.38;;
67191;SDS011;54120;53.504;49.426;2023-05-02T14:08:36;13.15;;;8.27;;
67191;SDS011;54120;53.504;49.426;2023-05-02T14:11:03;9.48;;;8.10;;
67191;SDS011;54120;53.504;49.426;2023-05-02T14:13:29;12.77;;;8.38;;
67191;SDS011;54120;53.504;49.426;2023-05-02T14:15:56;10.35;;;7.35;;
67191;SDS011;54120;53.504;49.426;2023-05-02T14:18:23;12.00;;;7.50;;
67191;SDS011;54120;53.504;49.426;2023-05-02T14:20:51;9.23;;;7.20;;
67191;SDS011;54120;53.504;49.426;2023-05-02T14:23:17;9.18;;;7.45;;
67191;SDS011;54120;53.504;49.426;2023-05-02T14:25:46;10.18;;;8.15;;
67191;SDS011;54120;53.504;49.426;2023-05-02T14:28:13;9.68;;;7.88;;
67191;SDS011;54120;53.504;49.426;2023-05-02T14:30:40;9.30;;;7.72;;
67191;SDS011;54120;53.504;49.426;2023-05-02T14:33:06;10.18;;;8.52;;
67191;SDS011;54120;53.504;49.426;2023-05-02T14:35:32;9.82;;;8.15;;
67191;SDS011;54120;53.504;49.426;2023-05-02T14:37:59;9.65;;;8.65;;
67191;SDS011;54120;53.504;49.426;2023-05-02T14:40:31;10.30;;;9.20;;
67191;SDS011;54120;53.504;49.426;2023-05-02T14:42:58;10.27;;;8.52;;
67191;SDS011;54120;53.504;49.426;2023-05-02T14:45:24;10.75;;;8.00;;
67191;SDS011;54120;53.504;49.426;2023-05-02T14:47:51;10.40;;;7.53;;
67191;SDS011;54120;53.504;49.426;2023-05-02T14:50:18;9.60;;;8.10;;
67191;SDS011;54120;53.504;49.426;2023-05-02T14:52:48;13.85;;;8.32;;
67191;SDS011;54120;53.504;49.426;2023-05-02T14:55:15;11.02;;;8.60;;
67191;SDS011;54120;53.504;49.426;2023-05-02T14:57:43;9.90;;;8.38;;
67191;SDS011;54120;53.504;49.426;2023-05-02T15:00:10;10.13;;;8.13;;
67191;SDS011;54120;53.504;49.426;2023-05-02T15:02:38;10.35;;;7.85;;
67191;SDS011;54120;53.504;49.426;2023-05-02T15:05:06;13.63;;;8.85;;
67191;SDS011;54120;53.504;49.426;2023-05-02T15:07:37;11.02;;;8.85;;
67191;SDS011;54120;53.504;49.426;2023-05-02T15:10:03;11.98;;;8.23;;
67191;SDS011;54120;53.504;49.426;2023-05-02T15:12:33;12.48;;;8.93;;
67191;SDS011;54120;53.504;49.426;2023-05-02T15:14:59;11.45;;;8.30;;
67191;SDS011;54120;53.504;49.426;2023-05-02T15:17:25;10.73;;;7.88;;
67191;SDS011;54120;53.504;49.426;2023-05-02T15:19:52;12.02;;;8.20;;
67191;SDS011;54120;53.504;49.426;2023-05-02T15:22:19;11.98;;;8.27;;
67191;SDS011;54120;53.504;49.426;2023-05-02T15:24:47;11.55;;;7.90;;
67191;SDS011;54120;53.504;49.426;2023-05-02T15:27:14;12.20;;;8.63;;
67191;SDS011;54120;53.504;49.426;2023-05-02T15:29:40;10.57;;;8.88;;
67191;SDS011;54120;53.504;49.426;2023-05-02T15:32:06;16.30;;;9.90;;
67191;SDS011;54120;53.504;49.426;2023-05-02T15:34:32;13.45;;;9.30;;
67191;SDS011;54120;53.504;49.426;2023-05-02T15:36:58;12.57;;;9.48;;
67191;SDS011;54120;53.504;49.426;2023-05-02T15:39:25;13.07;;;9.20;;
67191;SDS011;54120;53.504;49.426;2023-05-02T15:41:53;10.98;;;8.40;;
67191;SDS011;54120;53.504;49.426;2023-05-02T15:44:20;14.75;;;9.57;;
67191;SDS011;54120;53.504;49.426;2023-05-02T15:46:48;11.20;;;8.32;;
67191;SDS011;54120;53.504;49.426;2023-05-02T15:49:16;13.88;;;9.38;;
67191;SDS011;54120;53.504;49.426;2023-05-02T15:51:43;12.40;;;8.75;;
67191;SDS011;54120;53.504;49.426;2023-05-02T15:54:09;15.40;;;9.18;;